sensor_id;sensor_type;location;lat;lon;timestamp;temperature;humidity
44190;DHT22;29856;52.144;5.430;2023-08-20T00:00:17;21.30;99.90
44190;DHT22;29856;52.144;5.430;2023-08-20T00:02:43;21.20;99.90
44190;DHT22;29856;52.144;5.430;2023-08-20T00:05:11;21.00;99.90
44190;DHT22;29856;52.144;5.430;2023-08-20T00:07:36;21.00;99.90
44190;DHT22;29856;52.144;5.430;2023-08-20T00:10:02;20.90;99.90
44190;DHT22;29856;52.144;5.430;2023-08-20T00:12:28;20.90;99.90
44190;DHT22;29856;52.144;5.430;2023-08-20T00:15:01;20.80;99.90
44190;DHT22;29856;52.144;5.430;2023-08-20T00:17:29;20.80;99.90
44190;DHT22;29856;52.144;5.430;2023-08-20T00:19:55;20.80;99.90
44190;DHT22;29856;52.144;5.430;2023-08-20T00:22:25;20.80;99.90
44190;DHT22;29856;52.144;5.430;2023-08-20T00:24:54;20.80;99.90
44190;DHT22;29856;52.144;5.430;2023-08-20T00:27:20;20.70;99.90
44190;DHT22;29856;52.144;5.430;2023-08-20T00:29:46;20.60;99.90
44190;DHT22;29856;52.144;5.430;2023-08-20T00:32:11;20.60;99.90
44190;DHT22;29856;52.144;5.430;2023-08-20T00:34:37;20.50;99.90
44190;DHT22;29856;52.144;5.430;2023-08-20T00:37:02;20.40;99.90
44190;DHT22;29856;52.144;5.430;2023-08-20T00:39:28;20.20;99.90
44190;DHT22;29856;52.144;5.430;2023-08-20T00:41:54;20.20;99.90
44190;DHT22;29856;52.144;5.430;2023-08-20T00:44:20;20.20;99.90
44190;DHT22;29856;52.144;5.430;2023-08-20T00:46:45;20.20;99.90
44190;DHT22;29856;52.144;5.430;2023-08-20T00:49:11;20.10;99.90
44190;DHT22;29856;52.144;5.430;2023-08-20T00:51:37;20.10;99.90
44190;DHT22;29856;52.144;5.430;2023-08-20T00:54:03;20.10;99.90
44190;DHT22;29856;52.144;5.430;2023-08-20T00:56:29;20.20;99.90
44190;DHT22;29856;52.144;5.430;2023-08-20T00:58:55;20.30;99.90
44190;DHT22;29856;52.144;5.430;2023-08-20T01:01:22;20.30;99.90
44190;DHT22;29856;52.144;5.430;2023-08-20T01:03:47;20.40;99.90
44190;DHT22;29856;52.144;5.430;2023-08-20T01:06:20;20.30;99.90
44190;DHT22;29856;52.144;5.430;2023-08-20T01:08:47;20.20;99.90
44190;DHT22;29856;52.144;5.430;2023-08-20T01:11:23;20.20;99.90
44190;DHT22;29856;52.144;5.430;2023-08-20T01:13:49;20.20;99.90
44190;DHT22;29856;52.144;5.430;2023-08-20T01:16:15;20.30;99.90
44190;DHT22;29856;52.144;5.430;2023-08-20T01:18:40;20.20;99.90
44190;DHT22;29856;52.144;5.430;2023-08-20T01:21:20;20.30;99.90
44190;DHT22;29856;52.144;5.430;2023-08-20T01:29:42;20.10;99.90
44190;DHT22;29856;52.144;5.430;2023-08-20T01:32:08;20.10;99.90
44190;DHT22;29856;52.144;5.430;2023-08-20T01:34:35;20.10;99.90
44190;DHT22;29856;52.144;5.430;2023-08-20T01:37:01;20.10;99.90
44190;DHT22;29856;52.144;5.430;2023-08-20T01:39:26;20.10;99.90
44190;DHT22;29856;52.144;5.430;2023-08-20T01:41:52;20.20;99.90
44190;DHT22;29856;52.144;5.430;2023-08-20T01:44:17;20.10;99.90
44190;DHT22;29856;52.144;5.430;2023-08-20T01:46:43;20.10;99.90
44190;DHT22;29856;52.144;5.430;2023-08-20T01:49:08;20.10;99.90
44190;DHT22;29856;52.144;5.430;2023-08-20T01:51:34;20.00;99.90
44190;DHT22;29856;52.144;5.430;2023-08-20T01:53:59;20.00;99.90
44190;DHT22;29856;52.144;5.430;2023-08-20T01:56:25;20.00;99.90
44190;DHT22;29856;52.144;5.430;2023-08-20T01:58:50;20.00;99.90
44190;DHT22;29856;52.144;5.430;2023-08-20T02:01:15;19.90;99.90
44190;DHT22;29856;52.144;5.430;2023-08-20T02:03:41;19.90;99.90
44190;DHT22;29856;52.144;5.430;2023-08-20T02:06:06;19.90;99.90
44190;DHT22;29856;52.144;5.430;2023-08-20T02:08:32;20.00;99.90
44190;DHT22;29856;52.144;5.430;2023-08-20T02:11:02;20.00;99.90
44190;DHT22;29856;52.144;5.430;2023-08-20T02:13:28;19.90;99.90
44190;DHT22;29856;52.144;5.430;2023-08-20T02:16:00;19.90;99.90
44190;DHT22;29856;52.144;5.430;2023-08-20T02:18:26;19.90;99.90
44190;DHT22;29856;52.144;5.430;2023-08-20T02:20:51;19.90;99.90
44190;DHT22;29856;52.144;5.430;2023-08-20T02:23:17;20.00;99.90
44190;DHT22;29856;52.144;5.430;2023-08-20T02:25:43;19.90;99.90
44190;DHT22;29856;52.144;5.430;2023-08-20T02:28:12;19.90;99.90
44190;DHT22;29856;52.144;5.430;2023-08-20T02:30:40;19.80;99.90
44190;DHT22;29856;52.144;5.430;2023-08-20T02:33:06;19.80;99.90
44190;DHT22;29856;52.144;5.430;2023-08-20T02:35:31;19.80;99.90
44190;DHT22;29856;52.144;5.430;2023-08-20T02:37:57;19.80;99.90
44190;DHT22;29856;52.144;5.430;2023-08-20T02:40:22;19.70;99.90
44190;DHT22;29856;52.144;5.430;2023-08-20T02:42:48;19.60;99.90
44190;DHT22;29856;52.144;5.430;2023-08-20T02:45:13;19.60;99.90
44190;DHT22;29856;52.144;5.430;2023-08-20T02:47:39;19.60;99.90
44190;DHT22;29856;52.144;5.430;2023-08-20T02:50:05;19.60;99.90
44190;DHT22;29856;52.144;5.430;2023-08-20T02:52:30;19.60;99.90
44190;DHT22;29856;52.144;5.430;2023-08-20T02:54:56;19.60;99.90
44190;DHT22;29856;52.144;5.430;2023-08-20T02:57:21;19.50;99.90
44190;DHT22;29856;52.144;5.430;2023-08-20T02:59:47;19.50;99.90
44190;DHT22;29856;52.144;5.430;2023-08-20T03:02:12;19.50;99.90
44190;DHT22;29856;52.144;5.430;2023-08-20T03:04:38;19.40;99.90
44190;DHT22;29856;52.144;5.430;2023-08-20T03:07:03;19.30;99.90
44190;DHT22;29856;52.144;5.430;2023-08-20T03:09:29;19.40;99.90
44190;DHT22;29856;52.144;5.430;2023-08-20T03:11:54;19.40;99.90
44190;DHT22;29856;52.144;5.430;2023-08-20T03:14:23;19.40;99.90
44190;DHT22;29856;52.144;5.430;2023-08-20T03:16:48;19.40;99.90
44190;DHT22;29856;52.144;5.430;2023-08-20T03:19:15;19.30;99.90
44190;DHT22;29856;52.144;5.430;2023-08-20T03:21:40;19.30;99.90
44190;DHT22;29856;52.144;5.430;2023-08-20T03:24:07;19.40;99.90
44190;DHT22;29856;52.144;5.430;2023-08-20T03:26:32;19.40;99.90
44190;DHT22;29856;52.144;5.430;2023-08-20T03:28:58;19.40;99.90
44190;DHT22;29856;52.144;5.430;2023-08-20T03:31:24;19.30;99.90
44190;DHT22;29856;52.144;5.430;2023-08-20T03:33:49;19.20;99.90
44190;DHT22;29856;52.144;5.430;2023-08-20T03:36:15;19.20;99.90
44190;DHT22;29856;52.144;5.430;2023-08-20T03:38:40;19.20;99.90
44190;DHT22;29856;52.144;5.430;2023-08-20T03:41:06;19.20;99.90
44190;DHT22;29856;52.144;5.430;2023-08-20T03:43:31;19.10;99.90
44190;DHT22;29856;52.144;5.430;2023-08-20T03:45:56;19.10;99.90
44190;DHT22;29856;52.144;5.430;2023-08-20T03:48:22;19.10;99.90
44190;DHT22;29856;52.144;5.430;2023-08-20T03:50:47;19.00;99.90
44190;DHT22;29856;52.144;5.430;2023-08-20T03:53:13;19.00;99.90
44190;DHT22;29856;52.144;5.430;2023-08-20T03:55:38;19.00;99.90
44190;DHT22;29856;52.144;5.430;2023-08-20T03:58:04;18.90;99.90
44190;DHT22;29856;52.144;5.430;2023-08-20T04:00:29;18.80;99.90
44190;DHT22;29856;52.144;5.430;2023-08-20T04:02:55;18.80;99.90
44190;DHT22;29856;52.144;5.430;2023-08-20T04:05:20;18.70;99.90
44190;DHT22;29856;52.144;5.430;2023-08-20T04:07:46;18.60;99.90
44190;DHT22;29856;52.144;5.430;2023-08-20T04:10:11;18.50;99.90
44190;DHT22;29856;52.144;5.430;2023-08-20T04:12:37;18.60;99.90
44190;DHT22;29856;52.144;5.430;2023-08-20T04:15:03;18.70;99.90
44190;DHT22;29856;52.144;5.430;2023-08-20T04:17:28;18.60;99.90
44190;DHT22;29856;52.144;5.430;2023-08-20T04:19:54;18.70;99.90
44190;DHT22;29856;52.144;5.430;2023-08-20T04:22:19;18.60;99.90
44190;DHT22;29856;52.144;5.430;2023-08-20T04:24:45;18.60;99.90
44190;DHT22;29856;52.144;5.430;2023-08-20T04:27:10;18.70;99.90
44190;DHT22;29856;52.144;5.430;2023-08-20T04:29:36;18.70;99.90
44190;DHT22;29856;52.144;5.430;2023-08-20T04:32:01;18.60;99.90
44190;DHT22;29856;52.144;5.430;2023-08-20T04:34:27;18.60;99.90
44190;DHT22;29856;52.144;5.430;2023-08-20T04:36:52;18.40;99.90
44190;DHT22;29856;52.144;5.430;2023-08-20T04:39:18;18.50;99.90
44190;DHT22;29856;52.144;5.430;2023-08-20T04:41:44;18.50;99.90
44190;DHT22;29856;52.144;5.430;2023-08-20T04:44:09;18.50;99.90
44190;DHT22;29856;52.144;5.430;2023-08-20T04:46:35;18.40;99.90
44190;DHT22;29856;52.144;5.430;2023-08-20T04:49:00;18.30;99.90
44190;DHT22;29856;52.144;5.430;2023-08-20T04:51:26;18.30;99.90
44190;DHT22;29856;52.144;5.430;2023-08-20T04:53:51;18.20;99.90
44190;DHT22;29856;52.144;5.430;2023-08-20T04:56:17;18.20;99.90
44190;DHT22;29856;52.144;5.430;2023-08-20T04:58:42;18.30;99.90
44190;DHT22;29856;52.144;5.430;2023-08-20T05:01:08;18.30;99.90
44190;DHT22;29856;52.144;5.430;2023-08-20T05:03:33;18.50;99.90
44190;DHT22;29856;52.144;5.430;2023-08-20T05:05:59;18.40;99.90
44190;DHT22;29856;52.144;5.430;2023-08-20T05:08:24;18.40;99.90
44190;DHT22;29856;52.144;5.430;2023-08-20T05:10:50;18.50;99.90
44190;DHT22;29856;52.144;5.430;2023-08-20T05:13:15;18.40;99.90
44190;DHT22;29856;52.144;5.430;2023-08-20T05:15:41;18.30;99.90
44190;DHT22;29856;52.144;5.430;2023-08-20T05:18:06;18.30;99.90
44190;DHT22;29856;52.144;5.430;2023-08-20T05:20:32;18.30;99.90
44190;DHT22;29856;52.144;5.430;2023-08-20T05:22:57;18.30;99.90
44190;DHT22;29856;52.144;5.430;2023-08-20T05:25:23;18.30;99.90
44190;DHT22;29856;52.144;5.430;2023-08-20T05:27:48;18.40;99.90
44190;DHT22;29856;52.144;5.430;2023-08-20T05:30:14;18.40;99.90
44190;DHT22;29856;52.144;5.430;2023-08-20T05:32:39;18.50;99.90
44190;DHT22;29856;52.144;5.430;2023-08-20T05:35:05;18.40;99.90
44190;DHT22;29856;52.144;5.430;2023-08-20T05:37:30;18.50;99.90
44190;DHT22;29856;52.144;5.430;2023-08-20T05:39:56;18.50;99.90
44190;DHT22;29856;52.144;5.430;2023-08-20T05:42:21;18.60;99.90
44190;DHT22;29856;52.144;5.430;2023-08-20T05:44:47;18.50;99.90
44190;DHT22;29856;52.144;5.430;2023-08-20T05:47:12;18.60;99.90
44190;DHT22;29856;52.144;5.430;2023-08-20T05:49:38;18.60;99.90
44190;DHT22;29856;52.144;5.430;2023-08-20T05:52:03;18.60;99.90
44190;DHT22;29856;52.144;5.430;2023-08-20T05:54:29;18.70;99.90
44190;DHT22;29856;52.144;5.430;2023-08-20T05:56:54;18.60;99.90
44190;DHT22;29856;52.144;5.430;2023-08-20T05:59:20;18.60;99.90
44190;DHT22;29856;52.144;5.430;2023-08-20T06:01:45;18.60;99.90
44190;DHT22;29856;52.144;5.430;2023-08-20T06:04:11;18.60;99.90
44190;DHT22;29856;52.144;5.430;2023-08-20T06:06:36;18.70;99.90
44190;DHT22;29856;52.144;5.430;2023-08-20T06:09:02;18.80;99.90
44190;DHT22;29856;52.144;5.430;2023-08-20T06:11:28;18.80;99.90
44190;DHT22;29856;52.144;5.430;2023-08-20T06:13:53;18.80;99.90
44190;DHT22;29856;52.144;5.430;2023-08-20T06:16:19;18.80;99.90
44190;DHT22;29856;52.144;5.430;2023-08-20T06:18:44;18.80;99.90
44190;DHT22;29856;52.144;5.430;2023-08-20T06:21:09;18.90;99.90
44190;DHT22;29856;52.144;5.430;2023-08-20T06:23:35;18.90;99.90
44190;DHT22;29856;52.144;5.430;2023-08-20T06:26:00;18.90;99.90
44190;DHT22;29856;52.144;5.430;2023-08-20T06:28:26;19.00;99.90
44190;DHT22;29856;52.144;5.430;2023-08-20T06:30:51;19.10;99.90
44190;DHT22;29856;52.144;5.430;2023-08-20T06:33:17;19.10;99.90
44190;DHT22;29856;52.144;5.430;2023-08-20T06:35:42;19.20;99.90
44190;DHT22;29856;52.144;5.430;2023-08-20T06:38:11;19.40;99.90
44190;DHT22;29856;52.144;5.430;2023-08-20T06:40:36;19.50;99.90
44190;DHT22;29856;52.144;5.430;2023-08-20T06:43:02;19.70;99.90
44190;DHT22;29856;52.144;5.430;2023-08-20T06:45:27;19.80;99.90
44190;DHT22;29856;52.144;5.430;2023-08-20T06:47:53;20.00;99.90
44190;DHT22;29856;52.144;5.430;2023-08-20T06:50:18;20.20;99.90
44190;DHT22;29856;52.144;5.430;2023-08-20T06:52:44;20.30;99.90
44190;DHT22;29856;52.144;5.430;2023-08-20T06:55:09;20.50;99.90
44190;DHT22;29856;52.144;5.430;2023-08-20T06:57:35;20.60;99.90
44190;DHT22;29856;52.144;5.430;2023-08-20T07:00:00;20.80;99.90
44190;DHT22;29856;52.144;5.430;2023-08-20T07:02:26;21.00;99.90
44190;DHT22;29856;52.144;5.430;2023-08-20T07:04:51;21.10;99.90
44190;DHT22;29856;52.144;5.430;2023-08-20T07:07:17;21.20;99.90
44190;DHT22;29856;52.144;5.430;2023-08-20T07:09:42;21.30;99.90
44190;DHT22;29856;52.144;5.430;2023-08-20T07:12:08;21.50;99.90
44190;DHT22;29856;52.144;5.430;2023-08-20T07:14:34;21.60;99.90
44190;DHT22;29856;52.144;5.430;2023-08-20T07:16:59;21.70;99.90
44190;DHT22;29856;52.144;5.430;2023-08-20T07:19:25;21.70;99.90
44190;DHT22;29856;52.144;5.430;2023-08-20T07:21:51;21.90;99.90
44190;DHT22;29856;52.144;5.430;2023-08-20T07:24:16;22.00;99.90
44190;DHT22;29856;52.144;5.430;2023-08-20T07:26:42;22.10;99.90
44190;DHT22;29856;52.144;5.430;2023-08-20T07:29:07;22.20;99.90
44190;DHT22;29856;52.144;5.430;2023-08-20T07:31:33;22.20;99.90
44190;DHT22;29856;52.144;5.430;2023-08-20T07:34:01;22.20;99.90
44190;DHT22;29856;52.144;5.430;2023-08-20T07:36:27;22.30;99.90
44190;DHT22;29856;52.144;5.430;2023-08-20T07:38:53;22.50;99.90
44190;DHT22;29856;52.144;5.430;2023-08-20T07:41:19;22.70;99.90
44190;DHT22;29856;52.144;5.430;2023-08-20T07:43:46;22.70;99.90
44190;DHT22;29856;52.144;5.430;2023-08-20T07:46:12;22.80;99.90
44190;DHT22;29856;52.144;5.430;2023-08-20T07:48:38;22.90;99.90
44190;DHT22;29856;52.144;5.430;2023-08-20T07:51:04;23.00;99.90
44190;DHT22;29856;52.144;5.430;2023-08-20T07:53:30;23.10;99.90
44190;DHT22;29856;52.144;5.430;2023-08-20T07:55:56;23.10;99.90
44190;DHT22;29856;52.144;5.430;2023-08-20T07:58:22;23.20;99.90
44190;DHT22;29856;52.144;5.430;2023-08-20T08:00:47;23.40;99.90
44190;DHT22;29856;52.144;5.430;2023-08-20T08:03:13;23.50;99.90
44190;DHT22;29856;52.144;5.430;2023-08-20T08:05:38;23.60;99.90
44190;DHT22;29856;52.144;5.430;2023-08-20T08:08:04;23.70;99.90
44190;DHT22;29856;52.144;5.430;2023-08-20T08:10:29;23.80;99.90
44190;DHT22;29856;52.144;5.430;2023-08-20T08:12:55;23.90;99.90
44190;DHT22;29856;52.144;5.430;2023-08-20T08:15:20;23.90;99.90
44190;DHT22;29856;52.144;5.430;2023-08-20T08:17:46;24.00;99.90
44190;DHT22;29856;52.144;5.430;2023-08-20T08:20:11;24.10;99.90
44190;DHT22;29856;52.144;5.430;2023-08-20T08:22:37;24.20;99.90
44190;DHT22;29856;52.144;5.430;2023-08-20T08:25:03;24.30;99.90
44190;DHT22;29856;52.144;5.430;2023-08-20T08:27:28;24.40;99.90
44190;DHT22;29856;52.144;5.430;2023-08-20T08:29:54;24.50;99.90
44190;DHT22;29856;52.144;5.430;2023-08-20T08:32:19;24.60;99.90
44190;DHT22;29856;52.144;5.430;2023-08-20T08:34:45;24.60;99.90
44190;DHT22;29856;52.144;5.430;2023-08-20T08:37:10;24.50;99.90
44190;DHT22;29856;52.144;5.430;2023-08-20T08:39:36;24.50;99.90
44190;DHT22;29856;52.144;5.430;2023-08-20T08:42:03;24.70;99.90
44190;DHT22;29856;52.144;5.430;2023-08-20T08:44:29;24.70;99.90
44190;DHT22;29856;52.144;5.430;2023-08-20T08:46:55;24.90;99.90
44190;DHT22;29856;52.144;5.430;2023-08-20T08:49:21;25.00;99.90
44190;DHT22;29856;52.144;5.430;2023-08-20T08:51:46;25.10;99.90
44190;DHT22;29856;52.144;5.430;2023-08-20T08:54:13;25.20;99.90
44190;DHT22;29856;52.144;5.430;2023-08-20T08:56:40;25.30;99.90
44190;DHT22;29856;52.144;5.430;2023-08-20T08:59:05;25.40;99.90
44190;DHT22;29856;52.144;5.430;2023-08-20T09:01:31;25.30;99.90
44190;DHT22;29856;52.144;5.430;2023-08-20T09:03:57;25.30;99.90
44190;DHT22;29856;52.144;5.430;2023-08-20T09:06:23;25.20;99.90
44190;DHT22;29856;52.144;5.430;2023-08-20T09:08:48;25.30;99.90
44190;DHT22;29856;52.144;5.430;2023-08-20T09:11:14;25.50;99.90
44190;DHT22;29856;52.144;5.430;2023-08-20T09:13:41;25.50;99.90
44190;DHT22;29856;52.144;5.430;2023-08-20T09:16:08;25.70;99.90
44190;DHT22;29856;52.144;5.430;2023-08-20T09:18:38;25.50;99.90
44190;DHT22;29856;52.144;5.430;2023-08-20T09:21:06;25.70;99.90
44190;DHT22;29856;52.144;5.430;2023-08-20T09:23:32;25.60;99.90
44190;DHT22;29856;52.144;5.430;2023-08-20T09:25:58;25.80;99.90
44190;DHT22;29856;52.144;5.430;2023-08-20T09:28:26;26.00;99.90
44190;DHT22;29856;52.144;5.430;2023-08-20T09:30:58;25.80;99.90
44190;DHT22;29856;52.144;5.430;2023-08-20T09:33:24;25.80;99.90
44190;DHT22;29856;52.144;5.430;2023-08-20T09:35:51;26.00;99.90
44190;DHT22;29856;52.144;5.430;2023-08-20T09:38:19;26.20;99.90
44190;DHT22;29856;52.144;5.430;2023-08-20T09:40:50;26.30;99.90
44190;DHT22;29856;52.144;5.430;2023-08-20T09:43:16;26.30;99.90
44190;DHT22;29856;52.144;5.430;2023-08-20T09:45:43;26.50;99.90
44190;DHT22;29856;52.144;5.430;2023-08-20T09:48:10;26.60;99.90
44190;DHT22;29856;52.144;5.430;2023-08-20T09:50:36;26.70;99.90
44190;DHT22;29856;52.144;5.430;2023-08-20T09:55:39;27.10;99.90
44190;DHT22;29856;52.144;5.430;2023-08-20T09:58:07;27.00;99.90
44190;DHT22;29856;52.144;5.430;2023-08-20T10:00:33;26.50;99.90
44190;DHT22;29856;52.144;5.430;2023-08-20T10:02:59;26.90;99.90
44190;DHT22;29856;52.144;5.430;2023-08-20T10:05:25;27.10;99.90
44190;DHT22;29856;52.144;5.430;2023-08-20T10:07:52;26.90;99.90
44190;DHT22;29856;52.144;5.430;2023-08-20T10:10:18;26.80;99.90
44190;DHT22;29856;52.144;5.430;2023-08-20T10:12:44;27.00;99.90
44190;DHT22;29856;52.144;5.430;2023-08-20T10:15:11;27.00;99.90
44190;DHT22;29856;52.144;5.430;2023-08-20T10:17:39;26.80;99.90
44190;DHT22;29856;52.144;5.430;2023-08-20T10:20:06;26.50;99.90
44190;DHT22;29856;52.144;5.430;2023-08-20T10:22:45;26.60;99.90
44190;DHT22;29856;52.144;5.430;2023-08-20T10:25:23;26.80;99.90
44190;DHT22;29856;52.144;5.430;2023-08-20T10:27:49;27.10;99.90
44190;DHT22;29856;52.144;5.430;2023-08-20T10:30:27;27.20;99.90
44190;DHT22;29856;52.144;5.430;2023-08-20T10:32:55;27.60;99.90
44190;DHT22;29856;52.144;5.430;2023-08-20T10:35:26;27.60;97.40
44190;DHT22;29856;52.144;5.430;2023-08-20T10:38:12;27.50;97.70
44190;DHT22;29856;52.144;5.430;2023-08-20T10:46:13;27.80;97.00
44190;DHT22;29856;52.144;5.430;2023-08-20T10:48:40;28.00;97.70
44190;DHT22;29856;52.144;5.430;2023-08-20T10:51:38;28.10;96.80
44190;DHT22;29856;52.144;5.430;2023-08-20T10:54:10;28.20;94.80
44190;DHT22;29856;52.144;5.430;2023-08-20T10:56:55;28.40;93.50
44190;DHT22;29856;52.144;5.430;2023-08-20T10:59:27;28.40;91.50
44190;DHT22;29856;52.144;5.430;2023-08-20T11:01:57;28.20;92.50
44190;DHT22;29856;52.144;5.430;2023-08-20T11:04:27;28.00;90.80
44190;DHT22;29856;52.144;5.430;2023-08-20T11:06:54;27.80;91.30
44190;DHT22;29856;52.144;5.430;2023-08-20T11:09:24;27.00;92.00
44190;DHT22;29856;52.144;5.430;2023-08-20T11:11:51;27.30;92.10
44190;DHT22;29856;52.144;5.430;2023-08-20T11:14:19;26.80;91.70
44190;DHT22;29856;52.144;5.430;2023-08-20T11:16:45;26.70;91.70
44190;DHT22;29856;52.144;5.430;2023-08-20T11:19:12;26.10;92.30
44190;DHT22;29856;52.144;5.430;2023-08-20T11:21:43;26.20;92.20
44190;DHT22;29856;52.144;5.430;2023-08-20T11:24:09;26.40;92.80
44190;DHT22;29856;52.144;5.430;2023-08-20T11:26:35;26.60;93.40
44190;DHT22;29856;52.144;5.430;2023-08-20T11:29:12;26.90;93.50
44190;DHT22;29856;52.144;5.430;2023-08-20T11:31:39;26.50;91.90
44190;DHT22;29856;52.144;5.430;2023-08-20T11:34:06;26.60;92.90
44190;DHT22;29856;52.144;5.430;2023-08-20T11:36:31;26.80;92.30
44190;DHT22;29856;52.144;5.430;2023-08-20T11:38:57;26.70;92.90
44190;DHT22;29856;52.144;5.430;2023-08-20T11:41:24;26.50;91.70
44190;DHT22;29856;52.144;5.430;2023-08-20T11:43:51;25.90;92.90
44190;DHT22;29856;52.144;5.430;2023-08-20T11:46:19;25.90;96.40
44190;DHT22;29856;52.144;5.430;2023-08-20T11:49:07;26.30;94.20
44190;DHT22;29856;52.144;5.430;2023-08-20T11:51:46;26.50;92.70
44190;DHT22;29856;52.144;5.430;2023-08-20T11:54:13;26.20;95.10
44190;DHT22;29856;52.144;5.430;2023-08-20T11:56:50;26.60;94.70
44190;DHT22;29856;52.144;5.430;2023-08-20T11:59:17;26.80;95.10
44190;DHT22;29856;52.144;5.430;2023-08-20T12:01:43;27.20;92.50
44190;DHT22;29856;52.144;5.430;2023-08-20T12:04:10;27.30;92.20
44190;DHT22;29856;52.144;5.430;2023-08-20T12:06:37;27.90;90.00
44190;DHT22;29856;52.144;5.430;2023-08-20T12:09:22;28.20;89.10
44190;DHT22;29856;52.144;5.430;2023-08-20T12:11:54;28.50;87.00
44190;DHT22;29856;52.144;5.430;2023-08-20T12:14:20;28.50;83.10
44190;DHT22;29856;52.144;5.430;2023-08-20T12:16:46;28.20;84.60
44190;DHT22;29856;52.144;5.430;2023-08-20T12:19:12;28.50;83.40
44190;DHT22;29856;52.144;5.430;2023-08-20T12:21:38;28.30;80.70
44190;DHT22;29856;52.144;5.430;2023-08-20T12:24:03;27.70;88.70
44190;DHT22;29856;52.144;5.430;2023-08-20T12:26:29;28.40;82.60
44190;DHT22;29856;52.144;5.430;2023-08-20T12:28:55;28.40;84.20
44190;DHT22;29856;52.144;5.430;2023-08-20T12:31:20;28.00;84.40
44190;DHT22;29856;52.144;5.430;2023-08-20T12:33:46;27.60;86.60
44190;DHT22;29856;52.144;5.430;2023-08-20T12:36:11;27.70;87.10
44190;DHT22;29856;52.144;5.430;2023-08-20T12:38:37;27.30;86.70
44190;DHT22;29856;52.144;5.430;2023-08-20T12:41:02;27.80;85.90
44190;DHT22;29856;52.144;5.430;2023-08-20T12:43:28;27.20;84.60
44190;DHT22;29856;52.144;5.430;2023-08-20T12:45:53;27.00;87.00
44190;DHT22;29856;52.144;5.430;2023-08-20T12:48:19;27.20;87.70
44190;DHT22;29856;52.144;5.430;2023-08-20T12:50:44;27.50;89.00
44190;DHT22;29856;52.144;5.430;2023-08-20T12:53:10;27.20;90.00
44190;DHT22;29856;52.144;5.430;2023-08-20T12:55:35;27.90;88.00
44190;DHT22;29856;52.144;5.430;2023-08-20T12:58:01;28.60;82.70
44190;DHT22;29856;52.144;5.430;2023-08-20T13:00:27;28.60;82.30
44190;DHT22;29856;52.144;5.430;2023-08-20T13:02:53;28.60;82.80
44190;DHT22;29856;52.144;5.430;2023-08-20T13:05:19;28.40;85.00
44190;DHT22;29856;52.144;5.430;2023-08-20T13:07:45;28.50;84.40
44190;DHT22;29856;52.144;5.430;2023-08-20T13:10:11;27.50;84.40
44190;DHT22;29856;52.144;5.430;2023-08-20T13:12:37;27.00;86.40
44190;DHT22;29856;52.144;5.430;2023-08-20T13:15:06;26.90;90.20
44190;DHT22;29856;52.144;5.430;2023-08-20T13:17:32;27.30;87.40
44190;DHT22;29856;52.144;5.430;2023-08-20T13:19:58;27.40;88.40
44190;DHT22;29856;52.144;5.430;2023-08-20T13:22:23;27.60;89.80
44190;DHT22;29856;52.144;5.430;2023-08-20T13:24:48;27.60;88.40
44190;DHT22;29856;52.144;5.430;2023-08-20T13:27:14;27.60;90.80
44190;DHT22;29856;52.144;5.430;2023-08-20T13:29:42;27.20;89.80
44190;DHT22;29856;52.144;5.430;2023-08-20T13:32:08;27.60;90.10
44190;DHT22;29856;52.144;5.430;2023-08-20T13:34:33;27.60;89.30
44190;DHT22;29856;52.144;5.430;2023-08-20T13:36:59;27.50;88.70
44190;DHT22;29856;52.144;5.430;2023-08-20T13:39:24;27.00;87.10
44190;DHT22;29856;52.144;5.430;2023-08-20T13:41:50;26.80;88.70
44190;DHT22;29856;52.144;5.430;2023-08-20T13:44:15;26.50;91.40
44190;DHT22;29856;52.144;5.430;2023-08-20T13:46:41;27.30;91.20
44190;DHT22;29856;52.144;5.430;2023-08-20T13:49:06;27.30;88.70
44190;DHT22;29856;52.144;5.430;2023-08-20T13:51:32;27.50;90.20
44190;DHT22;29856;52.144;5.430;2023-08-20T13:53:58;27.90;87.30
44190;DHT22;29856;52.144;5.430;2023-08-20T13:56:23;28.40;84.30
44190;DHT22;29856;52.144;5.430;2023-08-20T13:58:49;28.70;84.80
44190;DHT22;29856;52.144;5.430;2023-08-20T14:01:14;28.50;86.70
44190;DHT22;29856;52.144;5.430;2023-08-20T14:03:40;28.20;83.50
44190;DHT22;29856;52.144;5.430;2023-08-20T14:06:06;28.10;84.50
44190;DHT22;29856;52.144;5.430;2023-08-20T14:08:32;27.90;84.80
44190;DHT22;29856;52.144;5.430;2023-08-20T14:10:58;27.60;88.40
44190;DHT22;29856;52.144;5.430;2023-08-20T14:13:23;27.60;90.20
44190;DHT22;29856;52.144;5.430;2023-08-20T14:15:49;27.20;90.40
44190;DHT22;29856;52.144;5.430;2023-08-20T14:18:14;27.40;90.80
44190;DHT22;29856;52.144;5.430;2023-08-20T14:20:39;27.60;87.80
44190;DHT22;29856;52.144;5.430;2023-08-20T14:23:05;28.20;85.20
44190;DHT22;29856;52.144;5.430;2023-08-20T14:25:31;28.60;86.30
44190;DHT22;29856;52.144;5.430;2023-08-20T14:27:56;28.20;83.70
44190;DHT22;29856;52.144;5.430;2023-08-20T14:30:22;27.60;85.30
44190;DHT22;29856;52.144;5.430;2023-08-20T14:32:47;27.90;87.70
44190;DHT22;29856;52.144;5.430;2023-08-20T14:35:13;27.90;87.30
44190;DHT22;29856;52.144;5.430;2023-08-20T14:37:38;27.60;89.60
44190;DHT22;29856;52.144;5.430;2023-08-20T14:40:04;28.00;88.90
44190;DHT22;29856;52.144;5.430;2023-08-20T14:42:30;28.70;84.10
44190;DHT22;29856;52.144;5.430;2023-08-20T14:44:55;29.10;82.90
44190;DHT22;29856;52.144;5.430;2023-08-20T14:47:21;29.00;82.80
44190;DHT22;29856;52.144;5.430;2023-08-20T14:49:46;28.80;83.40
44190;DHT22;29856;52.144;5.430;2023-08-20T14:52:12;28.50;84.40
44190;DHT22;29856;52.144;5.430;2023-08-20T14:54:37;28.80;83.80
44190;DHT22;29856;52.144;5.430;2023-08-20T14:57:03;28.90;80.20
44190;DHT22;29856;52.144;5.430;2023-08-20T14:59:28;28.30;83.40
44190;DHT22;29856;52.144;5.430;2023-08-20T15:01:54;29.00;82.20
44190;DHT22;29856;52.144;5.430;2023-08-20T15:04:19;29.50;79.40
44190;DHT22;29856;52.144;5.430;2023-08-20T15:06:45;29.60;79.90
44190;DHT22;29856;52.144;5.430;2023-08-20T15:09:10;29.60;77.50
44190;DHT22;29856;52.144;5.430;2023-08-20T15:11:36;29.90;77.50
44190;DHT22;29856;52.144;5.430;2023-08-20T15:14:01;30.00;75.00
44190;DHT22;29856;52.144;5.430;2023-08-20T15:16:27;29.90;76.60
44190;DHT22;29856;52.144;5.430;2023-08-20T15:18:53;30.00;78.50
44190;DHT22;29856;52.144;5.430;2023-08-20T15:21:18;30.30;75.70
44190;DHT22;29856;52.144;5.430;2023-08-20T15:23:44;30.50;74.80
44190;DHT22;29856;52.144;5.430;2023-08-20T15:26:09;30.40;73.40
44190;DHT22;29856;52.144;5.430;2023-08-20T15:28:35;30.40;74.90
44190;DHT22;29856;52.144;5.430;2023-08-20T15:31:00;30.30;75.60
44190;DHT22;29856;52.144;5.430;2023-08-20T15:33:26;30.80;73.40
44190;DHT22;29856;52.144;5.430;2023-08-20T15:35:51;30.40;73.50
44190;DHT22;29856;52.144;5.430;2023-08-20T15:38:17;30.80;73.10